Time;durP1;ratioP1;P1;durP2;ratioP2;P2;SDS_P1;SDS_P2;PMS_P1;PMS_P2;Temp;Humidity;BMP_temperature;BMP_pressure;BME280_temperature;BME280_humidity;BME280_pressure;Samples;Min_cycle;Max_cycle;Signal;HPM_P1;HPM_P2
2023/10/17 00:02:22;;;;;;;;;2.00;1.00;;;;;9.43;83.17;102139.47;4963574;28;10353;-70
2023/10/17 00:04:49;;;;;;;;;1.75;1.75;;;;;9.44;83.00;102135.78;4968916;28;10409;-71
2023/10/17 00:07:15;;;;;;;;;1.00;1.00;;;;;9.45;83.16;102143.72;4954008;28;10416;-71
2023/10/17 00:09:42;;;;;;;;;2.00;1.00;;;;;9.46;82.85;102142.69;4966076;28;10402;-71
2023/10/17 00:14:45;;;;;;;;;1.00;1.00;;;;;9.48;83.17;102142.53;4970943;28;10546;-71
2023/10/17 00:17:14;;;;;;;;;0.75;0.75;;;;;9.50;82.90;102140.56;4960114;28;10457;-70
2023/10/17 00:19:45;;;;;;;;;2.00;2.00;;;;;9.52;83.41;102139.41;4968033;28;10501;-71
2023/10/17 00:22:24;;;;;;;;;1.25;1.25;;;;;9.54;83.60;102131.16;4971372;28;10579;-71
2023/10/17 00:25:09;;;;;;;;;2.00;2.00;;;;;9.56;83.44;102134.53;4948519;28;10439;-72
2023/10/17 00:27:37;;;;;;;;;1.75;1.75;;;;;9.56;83.55;102123.78;4970569;28;11241;-70
2023/10/17 00:30:04;;;;;;;;;1.00;1.00;;;;;9.59;82.99;102128.84;4970634;28;10477;-70
2023/10/17 00:32:31;;;;;;;;;2.00;2.00;;;;;9.59;82.73;102131.53;4949770;28;10439;-70
2023/10/17 00:34:58;;;;;;;;;1.00;1.00;;;;;9.60;83.15;102131.41;4969132;28;10321;-70
2023/10/17 00:37:30;;;;;;;;;1.00;1.00;;;;;9.59;82.70;102128.84;4954110;28;10426;-71
2023/10/17 00:39:59;;;;;;;;;2.00;2.00;;;;;9.57;82.77;102120.97;4952939;28;10546;-70
2023/10/17 00:42:29;;;;;;;;;2.00;2.00;;;;;9.57;82.89;102123.66;4949582;28;10608;-70
2023/10/17 00:44:56;;;;;;;;;0.00;0.00;;;;;9.58;82.69;102119.94;4967989;28;10524;-70
2023/10/17 00:47:30;;;;;;;;;2.00;2.00;;;;;9.71;82.61;102119.53;5078202;27;13445;-71
2023/10/17 00:49:59;;;;;;;;;2.00;2.00;;;;;9.63;83.08;102114.94;5066821;28;10943;-71
2023/10/17 00:52:32;;;;;;;;;2.50;1.75;;;;;9.65;82.97;102110.25;5064502;28;10273;-71
2023/10/17 00:55:01;;;;;;;;;1.00;1.00;;;;;9.65;82.83;102112.13;5064333;28;11050;-71
2023/10/17 00:57:27;;;;;;;;;1.75;1.25;;;;;9.62;82.66;102115.94;5059612;28;10222;-71
2023/10/17 01:00:11;;;;;;;;;1.75;1.75;;;;;9.61;82.23;102116.13;5056182;28;10421;-71
2023/10/17 01:02:47;;;;;;;;;1.25;1.25;;;;;9.60;82.44;102112.59;5060748;28;10221;-70
2023/10/17 01:05:14;;;;;;;;;1.00;1.00;;;;;9.61;82.34;102110.75;5074078;28;10213;-71
2023/10/17 01:07:41;;;;;;;;;2.00;2.00;;;;;9.59;82.28;102096.59;5059105;28;10278;-71
2023/10/17 01:10:16;;;;;;;;;1.75;1.75;;;;;9.57;82.24;102099.44;5060477;28;10428;-71
2023/10/17 01:12:53;;;;;;;;;1.25;1.25;;;;;9.55;82.22;102085.31;5062374;28;11020;-70
2023/10/17 01:15:27;;;;;;;;;1.00;1.00;;;;;9.55;82.25;102095.22;5063433;28;10266;-70
2023/10/17 01:17:57;;;;;;;;;2.25;2.25;;;;;9.55;82.51;102089.84;5074738;28;10281;-70
2023/10/17 01:20:24;;;;;;;;;2.00;2.00;;;;;9.55;82.63;102089.84;5064706;28;10504;-71
2023/10/17 01:22:55;;;;;;;;;2.00;2.00;;;;;9.56;82.77;102091.53;5062941;28;10462;-71
2023/10/17 01:25:26;;;;;;;;;0.75;0.75;;;;;9.56;82.44;102086.16;5050794;28;10386;-71
2023/10/17 01:27:54;;;;;;;;;4.50;2.00;;;;;9.55;82.13;102079.94;5058790;28;10191;-71
2023/10/17 01:30:22;;;;;;;;;1.00;1.00;;;;;9.53;82.34;102081.94;5058560;28;10252;-71
2023/10/17 01:32:50;;;;;;;;;1.00;1.00;;;;;9.54;82.52;102088.16;5064342;28;10232;-71
2023/10/17 01:35:19;;;;;;;;;1.25;1.25;;;;;9.53;82.77;102084.63;5060244;28;10234;-71
2023/10/17 01:37:47;;;;;;;;;0.50;0.50;;;;;9.53;82.91;102081.09;5060470;28;10262;-71
2023/10/17 01:40:23;;;;;;;;;0.00;0.00;;;;;9.53;82.84;102084.63;5064272;28;10443;-71
2023/10/17 01:42:51;;;;;;;;;0.00;0.00;;;;;9.52;82.83;102085.66;5059044;28;10247;-71
2023/10/17 01:45:23;;;;;;;;;1.00;1.00;;;;;9.50;82.94;102084.09;5059113;28;10567;-70
2023/10/17 01:47:53;;;;;;;;;2.00;1.00;;;;;9.51;82.96;102085.78;5082433;28;10424;-70
2023/10/17 01:50:21;;;;;;;;;2.00;1.00;;;;;9.49;83.37;102079.72;5083077;28;10495;-71
2023/10/17 01:52:49;;;;;;;;;2.00;2.00;;;;;9.49;83.21;102085.13;5095896;28;10282;-70
2023/10/17 01:55:15;;;;;;;;;1.75;1.25;;;;;9.49;82.94;102082.44;5080514;28;10374;-71
2023/10/17 01:57:46;;;;;;;;;0.00;0.00;;;;;9.48;83.17;102086.09;5069466;28;11470;-71
2023/10/17 02:00:36;;;;;;;;;0.00;0.00;;;;;9.47;83.28;102079.03;5069914;28;10375;-71
2023/10/17 02:03:04;;;;;;;;;1.00;1.00;;;;;9.47;83.40;102076.34;5064294;28;10251;-71
2023/10/17 02:05:30;;;;;;;;;1.00;1.00;;;;;9.45;82.94;102073.00;5052918;28;10274;-70
2023/10/17 02:07:58;;;;;;;;;2.00;2.00;;;;;9.41;83.07;102070.59;5068286;28;10424;-70
2023/10/17 02:10:25;;;;;;;;;1.75;1.75;;;;;9.41;83.13;102069.75;5050718;28;10599;-70
2023/10/17 02:12:52;;;;;;;;;1.00;1.00;;;;;9.39;83.51;102061.84;5066745;28;10481;-71
2023/10/17 02:15:24;;;;;;;;;2.00;2.00;;;;;9.38;82.95;102062.84;5069642;28;10485;-70
2023/10/17 02:17:53;;;;;;;;;1.00;1.00;;;;;9.38;83.66;102062.00;5066404;28;10543;-69
2023/10/17 02:22:57;;;;;;;;;1.00;1.00;;;;;9.34;83.54;102056.09;5063799;28;10627;-70
2023/10/17 02:25:28;;;;;;;;;1.75;1.00;;;;;9.32;83.54;102050.06;5068809;28;10536;-71
2023/10/17 02:27:54;;;;;;;;;1.75;1.25;;;;;9.32;83.84;102058.13;5071301;28;10523;-71
2023/10/17 02:30:21;;;;;;;;;1.75;1.75;;;;;9.32;83.47;102063.50;5065264;28;10568;-71
2023/10/17 02:32:54;;;;;;;;;2.00;2.00;;;;;9.30;84.31;102054.72;5067009;28;10567;-70
2023/10/17 02:35:28;;;;;;;;;3.00;2.00;;;;;9.36;84.62;102058.66;5063033;28;11279;-71
2023/10/17 02:37:59;;;;;;;;;3.00;3.00;;;;;9.38;84.41;102059.31;5069860;28;10545;-70
2023/10/17 02:40:26;;;;;;;;;2.00;2.00;;;;;9.42;84.66;102063.38;5071450;28;10592;-71
2023/10/17 02:42:53;;;;;;;;;2.00;1.25;;;;;9.43;84.03;102053.47;5048241;28;10596;-70
2023/10/17 02:45:26;;;;;;;;;1.75;1.00;;;;;9.45;83.93;102052.31;5063332;28;10489;-70
2023/10/17 02:47:57;;;;;;;;;1.00;1.00;;;;;9.47;84.18;102050.31;5069543;28;10428;-71
2023/10/17 02:52:57;;;;;;;;;2.00;1.50;;;;;9.49;83.87;102050.16;5075016;28;11331;-70
2023/10/17 02:55:23;;;;;;;;;1.00;1.00;;;;;9.51;83.90;102061.59;5061523;28;11279;-70
2023/10/17 02:57:57;;;;;;;;;1.50;1.50;;;;;9.52;83.48;102050.69;5064108;28;10408;-70
2023/10/17 03:00:33;;;;;;;;;1.00;1.00;;;;;9.53;83.81;102055.06;5064512;28;10444;-71
2023/10/17 03:03:00;;;;;;;;;1.00;1.00;;;;;9.54;83.45;102056.75;5069622;28;10314;-70
2023/10/17 03:05:30;;;;;;;;;1.00;1.00;;;;;9.53;83.38;102055.06;5057630;28;10356;-71
2023/10/17 03:07:57;;;;;;;;;1.25;1.25;;;;;9.56;82.99;102056.56;5058282;28;10277;-70
2023/10/17 03:10:37;;;;;;;;;0.50;0.00;;;;;9.56;82.80;102059.28;5068876;28;10424;-70
2023/10/17 03:15:48;;;;;;;;;0.00;0.00;;;;;9.58;82.75;102052.75;5062783;28;10386;-70
2023/10/17 03:18:16;;;;;;;;;1.00;1.00;;;;;9.59;82.97;102059.81;5062489;28;10376;-70
2023/10/17 03:20:50;;;;;;;;;0.50;0.25;;;;;9.59;82.35;102053.59;5070796;28;10988;-71
2023/10/17 03:23:19;;;;;;;;;1.75;1.00;;;;;9.60;82.66;102052.56;5063922;28;11012;-70
2023/10/17 03:25:46;;;;;;;;;0.00;0.00;;;;;9.58;82.30;102058.13;5059071;28;10306;-70
2023/10/17 03:28:17;;;;;;;;;1.00;1.00;;;;;9.58;82.15;102066.19;5070422;28;10237;-70
2023/10/17 03:30:47;;;;;;;;;1.00;0.25;;;;;9.55;82.66;102061.13;5070591;28;10178;-70
2023/10/17 03:33:14;;;;;;;;;1.00;0.00;;;;;9.56;82.13;102070.03;5061710;28;11573;-70
2023/10/17 03:38:36;;;;;;;;;0.25;0.25;;;;;9.53;82.30;102071.19;5063500;28;10445;-70
2023/10/17 03:41:07;;;;;;;;;1.00;1.00;;;;;9.51;82.24;102070.50;5069071;28;11015;-70
2023/10/17 03:43:38;;;;;;;;;1.00;1.00;;;;;9.50;82.57;102070.66;5060893;28;10925;-70
2023/10/17 03:46:05;;;;;;;;;0.25;0.00;;;;;9.49;82.32;102074.38;5050964;28;10447;-71
2023/10/17 03:48:49;;;;;;;;;0.00;0.00;;;;;9.47;82.53;102082.56;5067036;28;10353;-70
2023/10/17 03:51:24;;;;;;;;;1.00;1.00;;;;;9.45;82.88;102079.19;5057866;28;10294;-70
2023/10/17 03:53:53;;;;;;;;;0.50;0.50;;;;;9.46;82.66;102080.03;5070197;28;10355;-70
2023/10/17 03:56:35;;;;;;;;;1.00;1.00;;;;;9.47;82.36;102081.72;5065750;28;10424;-71
2023/10/17 04:01:41;;;;;;;;;0.50;0.50;;;;;9.37;82.33;102077.28;5062273;28;10576;-70
2023/10/17 04:04:08;;;;;;;;;2.00;2.00;;;;;9.38;82.48;102080.81;5060632;28;10525;-70
2023/10/17 04:06:55;;;;;;;;;0.75;0.75;;;;;9.40;82.44;102077.00;5054436;28;10455;-70
2023/10/17 04:11:53;;;;;;;;;2.00;1.00;;;;;9.43;82.11;102077.66;5066357;28;10365;-69
2023/10/17 04:14:21;;;;;;;;;1.00;1.00;;;;;9.45;81.67;102073.81;5060898;28;10456;-69
2023/10/17 04:16:48;;;;;;;;;1.50;1.50;;;;;9.43;81.51;102069.59;5061139;28;10378;-71
2023/10/17 04:19:18;;;;;;;;;3.00;3.00;;;;;9.44;81.75;102072.16;5060867;28;10424;-71
2023/10/17 04:21:49;;;;;;;;;2.00;2.00;;;;;9.38;81.34;102075.44;5053581;28;10453;-69
2023/10/17 04:24:26;;;;;;;;;1.00;1.00;;;;;9.39;81.87;102079.81;5048335;28;10531;-71
2023/10/17 04:27:36;;;;;;;;;1.50;1.50;;;;;9.39;80.99;102075.28;5055007;28;10429;-70
2023/10/17 04:29:50;;;;;;;;;1.75;1.00;;;;;9.40;81.31;102082.38;5062078;28;10356;-70
2023/10/17 04:32:19;;;;;;;;;2.75;1.75;;;;;9.41;81.48;102084.03;5055547;28;10360;-71
2023/10/17 04:34:46;;;;;;;;;1.50;1.00;;;;;9.44;81.28;102090.09;5076347;28;11173;-69
2023/10/17 04:37:31;;;;;;;;;1.75;1.75;;;;;9.45;81.67;102081.06;5058962;28;10354;-70
2023/10/17 04:45:20;;;;;;;;;2.00;2.00;;;;;9.44;81.59;102090.97;5063981;28;10323;-71
2023/10/17 04:47:47;;;;;;;;;2.75;2.25;;;;;9.40;81.09;102092.28;5066795;28;10443;-69
2023/10/17 04:50:13;;;;;;;;;3.00;1.75;;;;;9.34;81.83;102091.03;5054810;28;10492;-71
2023/10/17 04:52:44;;;;;;;;;1.25;1.00;;;;;9.31;82.06;102094.03;5066988;28;10335;-71
2023/10/17 04:58:30;;;;;;;;;2.75;2.75;;;;;9.35;81.97;102083.81;5063146;28;10338;-70
2023/10/17 05:00:51;;;;;;;;;3.00;3.00;;;;;9.35;81.93;102071.22;5057694;28;10461;-70
2023/10/17 05:03:32;;;;;;;;;2.50;2.00;;;;;9.32;82.34;102076.09;5064548;28;11260;-70
2023/10/17 05:09:00;;;;;;;;;3.00;2.25;;;;;9.21;82.05;102074.47;5065200;28;10673;-70
2023/10/17 06:18:59;;;;;;;;;5.50;5.00;;;;;8.89;82.61;102053.53;5058354;28;10743;-70
2023/10/17 06:21:36;;;;;;;;;3.00;3.00;;;;;8.90;82.32;102052.53;5061987;28;10659;-70
2023/10/17 06:24:45;;;;;;;;;7.00;3.50;;;;;8.90;82.70;102050.69;5070006;28;10448;-70
2023/10/17 06:27:11;;;;;;;;;5.25;5.25;;;;;8.87;82.60;102051.00;5067523;28;10779;-71
2023/10/17 06:32:48;;;;;;;;;3.00;2.00;;;;;9.04;86.12;102053.84;5075134;28;10755;-71
2023/10/17 06:35:20;;;;;;;;;5.25;4.50;;;;;9.06;84.22;102058.06;5068663;28;10787;-69
2023/10/17 06:37:51;;;;;;;;;5.75;5.75;;;;;8.98;83.49;102066.03;5060280;28;10808;-71
2023/10/17 06:40:18;;;;;;;;;9.00;6.25;;;;;8.90;83.25;102068.63;5069541;28;10712;-70
2023/10/17 06:42:58;;;;;;;;;5.50;5.00;;;;;8.92;83.24;102063.97;5071345;28;10795;-71
2023/10/17 06:45:25;;;;;;;;;7.25;5.75;;;;;8.90;83.06;102069.47;5070922;28;11400;-72
2023/10/17 06:47:57;;;;;;;;;7.00;5.00;;;;;8.90;83.38;102074.84;5069536;28;10666;-70
2023/10/17 06:53:27;;;;;;;;;6.00;6.00;;;;;8.95;83.05;102071.69;5016403;28;10704;-72
2023/10/17 06:56:04;;;;;;;;;6.50;6.25;;;;;8.95;82.45;102074.38;5052994;28;10662;-71
2023/10/17 06:58:32;;;;;;;;;6.75;4.50;;;;;8.96;82.89;102067.22;5069496;28;10812;-71
2023/10/17 07:00:59;;;;;;;;;5.25;5.25;;;;;8.97;83.02;102058.16;5069416;28;10589;-71
2023/10/17 07:03:26;;;;;;;;;8.00;6.50;;;;;8.96;82.85;102065.34;5069426;28;10645;-71
2023/10/17 07:06:03;;;;;;;;;6.00;6.00;;;;;8.90;82.66;102057.91;5069547;28;10655;-71
2023/10/17 07:08:36;;;;;;;;;5.75;5.75;;;;;8.93;82.81;102062.97;5069539;28;10827;-71
2023/10/17 07:11:05;;;;;;;;;6.50;5.25;;;;;8.87;82.51;102056.38;5070695;28;10604;-70
2023/10/17 07:14:10;;;;;;;;;6.75;6.50;;;;;8.88;82.80;102055.38;5070575;28;10721;-71
2023/10/17 07:21:57;;;;;;;;;5.25;5.25;;;;;8.93;82.89;102057.59;5070390;28;10763;-71
2023/10/17 07:24:24;;;;;;;;;3.50;3.00;;;;;8.92;82.60;102058.59;5070718;28;10691;-70
2023/10/17 07:26:52;;;;;;;;;6.50;6.50;;;;;8.88;83.10;102060.75;5068216;28;10789;-70
2023/10/17 07:29:22;;;;;;;;;3.00;3.00;;;;;8.87;82.48;102058.19;5067308;28;10658;-70
2023/10/17 07:31:54;;;;;;;;;7.00;7.00;;;;;8.90;81.63;102058.75;5068202;28;10774;-69
2023/10/17 07:34:24;;;;;;;;;4.50;4.50;;;;;8.91;81.82;102060.44;5068037;28;10691;-70
2023/10/17 07:36:55;;;;;;;;;10.00;6.75;;;;;8.92;80.90;102050.56;5067921;28;10704;-70
2023/10/17 07:39:29;;;;;;;;;6.25;5.75;;;;;8.87;80.89;102058.19;5068042;28;10813;-70
2023/10/17 07:41:56;;;;;;;;;6.50;6.50;;;;;8.82;81.59;102060.50;5069878;28;10930;-69
2023/10/17 07:44:25;;;;;;;;;4.75;4.00;;;;;8.90;81.69;102061.44;5070119;28;11033;-69
2023/10/17 07:49:41;;;;;;;;;7.00;5.75;;;;;8.99;81.35;102066.88;5069997;28;10743;-69
2023/10/17 07:52:12;;;;;;;;;3.00;3.00;;;;;9.07;81.45;102066.94;5069830;28;11532;-69
2023/10/17 07:54:45;;;;;;;;;6.25;6.00;;;;;9.13;81.16;102060.97;5070033;28;10550;-70
2023/10/17 07:57:18;;;;;;;;;6.75;6.00;;;;;9.18;81.10;102063.19;5069369;28;10720;-69
2023/10/17 07:59:51;;;;;;;;;6.50;6.50;;;;;9.22;80.66;102069.94;5069894;28;10728;-70
2023/10/17 08:02:20;;;;;;;;;9.00;7.50;;;;;9.13;80.01;102064.50;5069653;28;10594;-70
2023/10/17 08:04:53;;;;;;;;;6.00;6.00;;;;;9.13;80.48;102069.03;5069619;28;10828;-70
2023/10/17 08:07:22;;;;;;;;;9.00;6.75;;;;;9.14;80.61;102063.50;5069323;28;10850;-69
2023/10/17 08:09:58;;;;;;;;;4.25;4.25;;;;;9.20;80.88;102063.91;5068554;28;10782;-70
2023/10/17 08:12:29;;;;;;;;;8.75;7.00;;;;;9.22;80.80;102056.50;5069566;28;10568;-70
2023/10/17 08:14:59;;;;;;;;;5.25;5.00;;;;;9.30;80.00;102054.72;5068239;28;10784;-70
2023/10/17 08:17:27;;;;;;;;;5.00;5.00;;;;;9.39;79.61;102066.38;5067933;28;10642;-70
2023/10/17 08:20:03;;;;;;;;;6.25;5.75;;;;;9.35;79.66;102062.31;5068171;28;11433;-70
2023/10/17 08:22:54;;;;;;;;;7.00;6.75;;;;;9.34;79.06;102061.47;5069506;28;10720;-70
2023/10/17 08:25:26;;;;;;;;;7.25;4.00;;;;;9.35;78.88;102059.63;5069381;28;10551;-70
2023/10/17 08:27:54;;;;;;;;;7.25;6.75;;;;;9.32;78.65;102059.97;5068842;28;10534;-69
2023/10/17 08:30:24;;;;;;;;;6.00;3.00;;;;;9.34;78.67;102055.25;5069313;28;10569;-70
2023/10/17 08:33:11;;;;;;;;;3.00;3.00;;;;;9.26;78.88;102066.78;5068375;28;10486;-69
2023/10/17 08:35:51;;;;;;;;;7.25;7.00;;;;;9.34;78.27;102063.31;5068215;28;10670;-70
2023/10/17 08:38:17;;;;;;;;;6.25;5.00;;;;;9.38;78.52;102067.38;5067968;28;10509;-70
2023/10/17 08:40:49;;;;;;;;;7.25;7.25;;;;;9.38;80.05;102075.44;5069630;28;10713;-70
2023/10/17 08:43:20;;;;;;;;;6.00;5.00;;;;;9.43;78.80;102077.66;5068451;28;10529;-70
2023/10/17 08:45:54;;;;;;;;;7.00;5.00;;;;;9.45;78.49;102075.69;5069320;28;11302;-70
2023/10/17 08:48:20;;;;;;;;;3.50;3.50;;;;;9.48;77.88;102083.41;5068806;28;10599;-70
2023/10/17 08:50:47;;;;;;;;;6.00;5.00;;;;;9.51;77.61;102080.41;5069207;28;10497;-70
2023/10/17 08:55:44;;;;;;;;;5.00;5.00;;;;;9.49;77.72;102077.88;5069419;28;10522;-70
2023/10/17 08:58:10;;;;;;;;;3.50;3.50;;;;;9.45;78.13;102065.75;5067663;28;11194;-70
2023/10/17 09:03:24;;;;;;;;;5.00;3.00;;;;;9.57;75.72;102086.00;5069028;28;10410;-70
2023/10/17 09:05:58;;;;;;;;;3.00;2.00;;;;;9.57;76.07;102090.53;5069163;28;10290;-70
2023/10/17 09:08:43;;;;;;;;;3.00;1.75;;;;;9.59;75.07;102084.00;5069973;28;10375;-70
2023/10/17 09:11:14;;;;;;;;;3.00;3.00;;;;;9.65;73.93;102088.75;5071812;28;10355;-70
2023/10/17 09:16:13;;;;;;;;;1.00;1.00;;;;;9.61;73.16;102103.50;5073004;28;10286;-70
2023/10/17 09:18:48;;;;;;;;;3.00;2.00;;;;;9.73;72.87;102093.34;5072174;28;10378;-70
2023/10/17 09:21:16;;;;;;;;;1.00;1.00;;;;;9.74;72.94;102091.50;5071768;28;10340;-69
2023/10/17 09:23:43;;;;;;;;;1.00;1.00;;;;;9.81;71.32;102087.19;5071684;28;10338;-69
2023/10/17 09:26:12;;;;;;;;;1.00;1.00;;;;;9.78;69.68;102084.81;5072676;28;10288;-69
2023/10/17 09:28:42;;;;;;;;;1.00;1.00;;;;;9.80;69.20;102091.72;5072912;28;10204;-69
2023/10/17 09:31:12;;;;;;;;;2.00;1.00;;;;;9.82;68.94;102089.69;5072670;28;10333;-69
2023/10/17 09:33:43;;;;;;;;;1.00;1.00;;;;;9.83;69.27;102090.53;5072773;28;10157;-70
2023/10/17 09:36:13;;;;;;;;;0.00;0.00;;;;;9.89;69.45;102098.81;5070911;28;10220;-70
2023/10/17 09:38:46;;;;;;;;;0.00;0.00;;;;;9.87;67.74;102090.06;5071318;28;10125;-70
2023/10/17 09:41:18;;;;;;;;;0.00;0.00;;;;;9.91;68.31;102104.03;5071158;28;10173;-70
2023/10/17 09:43:47;;;;;;;;;0.00;0.00;;;;;9.83;67.69;102088.69;5071150;28;10139;-70
2023/10/17 09:46:14;;;;;;;;;0.00;0.00;;;;;9.90;67.87;102096.97;5070723;28;10206;-69
2023/10/17 09:48:43;;;;;;;;;0.00;0.00;;;;;9.94;66.83;102087.59;5072251;28;10156;-69
2023/10/17 09:51:24;;;;;;;;;0.00;0.00;;;;;10.01;65.91;102093.19;5072343;28;10044;-69
2023/10/17 09:53:53;;;;;;;;;1.75;0.00;;;;;9.95;66.67;102091.97;5072363;28;10197;-69
2023/10/17 09:56:29;;;;;;;;;0.00;0.00;;;;;9.89;66.34;102093.44;5072038;28;10879;-69
2023/10/17 09:59:03;;;;;;;;;1.00;0.00;;;;;9.94;66.15;102084.06;5071134;28;10893;-69
2023/10/17 10:01:56;;;;;;;;;0.00;0.00;;;;;10.07;65.98;102079.91;5073781;28;10805;-71
2023/10/17 10:04:23;;;;;;;;;0.00;0.00;;;;;10.09;65.52;102077.94;4991328;28;10892;-66
2023/10/17 10:07:20;;;;;;;;;1.25;0.00;;;;;10.05;65.37;102070.34;4975789;28;10279;-67
2023/10/17 10:09:47;;;;;;;;;0.00;0.00;;;;;10.11;64.85;102067.00;4975667;28;10101;-66
2023/10/17 10:12:14;;;;;;;;;0.00;0.00;;;;;10.11;66.26;102075.06;4992872;28;10148;-66
2023/10/17 10:14:44;;;;;;;;;0.00;0.00;;;;;10.16;66.27;102067.34;4992890;28;10142;-66
2023/10/17 10:17:14;;;;;;;;;0.00;0.00;;;;;10.20;65.76;102068.69;4975295;28;10235;-65
2023/10/17 10:19:41;;;;;;;;;1.00;1.00;;;;;10.18;65.36;102059.97;4992325;28;9989;-66
2023/10/17 10:22:10;;;;;;;;;1.00;1.00;;;;;10.29;66.10;102064.22;4992440;28;10135;-67
2023/10/17 10:24:39;;;;;;;;;1.00;0.00;;;;;10.35;65.48;102060.91;4975244;28;10158;-67
2023/10/17 10:29:48;;;;;;;;;0.00;0.00;;;;;10.34;66.21;102059.22;4992752;28;10002;-66
2023/10/17 10:32:24;;;;;;;;;0.00;0.00;;;;;10.43;65.77;102055.53;4992469;28;10005;-66
2023/10/17 10:34:52;;;;;;;;;1.00;0.00;;;;;10.44;64.09;102054.53;4992462;28;10034;-66
2023/10/17 10:37:21;;;;;;;;;1.75;0.75;;;;;10.37;65.27;102051.66;4991803;28;9992;-66
2023/10/17 10:40:12;;;;;;;;;1.00;1.00;;;;;10.41;64.70;102057.53;4975087;28;10908;-66
2023/10/17 10:42:43;;;;;;;;;1.00;1.00;;;;;10.34;65.21;102043.91;4992177;28;10155;-66
2023/10/17 10:45:29;;;;;;;;;1.00;1.00;;;;;10.39;65.48;102043.41;4992046;28;10133;-66
2023/10/17 10:47:59;;;;;;;;;0.00;0.00;;;;;10.46;65.39;102040.94;4974624;28;10157;-66
2023/10/17 10:50:27;;;;;;;;;1.00;1.00;;;;;10.46;66.04;102046.31;4992110;28;10111;-66
2023/10/17 10:52:56;;;;;;;;;1.00;1.00;;;;;10.43;65.95;102057.41;4992281;28;10190;-66
2023/10/17 10:55:27;;;;;;;;;3.75;1.00;;;;;10.39;65.83;102044.25;4958412;28;10079;-67
2023/10/17 10:57:54;;;;;;;;;2.75;2.75;;;;;10.36;66.53;102044.56;4991809;28;10922;-66
2023/10/17 11:00:20;;;;;;;;;2.00;1.00;;;;;10.43;66.51;102043.94;4992393;28;10078;-65
2023/10/17 11:02:48;;;;;;;;;0.00;0.00;;;;;10.56;68.01;102037.06;4992096;28;10093;-67
2023/10/17 11:05:15;;;;;;;;;1.00;1.00;;;;;10.66;66.99;102036.09;4958122;28;9828;-67
2023/10/17 11:07:42;;;;;;;;;1.00;1.00;;;;;10.73;66.40;102043.31;4991521;28;9912;-67
2023/10/17 11:10:18;;;;;;;;;2.00;2.00;;;;;10.80;65.19;102041.66;4991661;28;9909;-68
2023/10/17 11:12:53;;;;;;;;;1.50;1.00;;;;;10.77;65.90;102033.91;4991677;28;10216;-67
2023/10/17 11:15:26;;;;;;;;;1.00;1.00;;;;;10.72;65.06;102030.88;4991455;28;10153;-67
2023/10/17 11:18:01;;;;;;;;;1.25;1.25;;;;;10.76;64.98;102026.84;4991165;28;10057;-67
2023/10/17 11:20:28;;;;;;;;;3.50;2.50;;;;;10.85;64.77;102019.59;4973814;28;10108;-66
2023/10/17 11:22:55;;;;;;;;;0.00;0.00;;;;;10.85;65.00;102020.44;4991528;28;10170;-65
2023/10/17 11:25:26;;;;;;;;;1.00;1.00;;;;;10.89;66.24;102010.16;4991538;28;9985;-66
2023/10/17 11:28:00;;;;;;;;;1.00;1.00;;;;;10.84;65.90;102008.00;4990664;28;9983;-66
2023/10/17 11:30:34;;;;;;;;;0.00;0.00;;;;;10.77;66.04;101996.19;4973108;28;10088;-65
2023/10/17 11:33:05;;;;;;;;;2.00;1.00;;;;;10.81;64.49;102002.09;4973532;28;9922;-66
2023/10/17 11:35:34;;;;;;;;;3.25;1.00;;;;;10.79;64.79;101982.56;4991587;28;10135;-67
2023/10/17 11:38:02;;;;;;;;;1.00;1.00;;;;;10.70;64.52;101980.91;4973394;28;10008;-66
2023/10/17 11:40:38;;;;;;;;;0.00;0.00;;;;;10.81;64.72;101972.47;4991096;28;10056;-66
2023/10/17 11:43:16;;;;;;;;;1.00;1.00;;;;;11.02;64.43;101975.50;4973560;28;10015;-67
2023/10/17 11:45:43;;;;;;;;;1.00;1.00;;;;;11.02;64.68;101967.44;4991013;28;10000;-66
2023/10/17 11:48:30;;;;;;;;;1.00;1.00;;;;;11.10;64.45;101961.16;4990841;28;10031;-66
2023/10/17 11:51:12;;;;;;;;;1.00;1.00;;;;;11.17;64.27;101958.63;4991038;28;10815;-67
2023/10/17 11:54:06;;;;;;;;;1.00;1.00;;;;;11.17;63.46;101970.25;4990880;28;9925;-65
2023/10/17 11:56:45;;;;;;;;;1.00;1.00;;;;;11.06;63.92;101958.00;4990776;28;9911;-66
2023/10/17 11:59:12;;;;;;;;;1.00;1.00;;;;;11.19;64.52;101959.31;4990839;28;9917;-67
2023/10/17 12:01:39;;;;;;;;;0.00;0.00;;;;;11.25;64.53;101955.94;4990725;28;9990;-67
2023/10/17 12:04:06;;;;;;;;;0.75;0.00;;;;;11.35;63.44;101957.44;4990719;28;9909;-66
2023/10/17 12:06:34;;;;;;;;;1.00;1.00;;;;;11.41;63.79;101952.34;4989359;28;9923;-67
2023/10/17 12:09:17;;;;;;;;;0.00;0.00;;;;;11.44;63.21;101955.56;4990974;28;9913;-66
2023/10/17 12:11:46;;;;;;;;;0.75;0.75;;;;;11.43;62.51;101944.94;4973149;28;9760;-67
2023/10/17 12:14:19;;;;;;;;;1.00;1.00;;;;;11.44;62.69;101950.16;4989519;28;9855;-68
2023/10/17 12:16:53;;;;;;;;;1.00;1.00;;;;;11.46;63.01;101948.13;4990199;28;9830;-67
2023/10/17 12:19:21;;;;;;;;;0.00;0.00;;;;;11.53;63.58;101942.88;4973361;28;10789;-66
2023/10/17 12:21:48;;;;;;;;;1.00;1.00;;;;;11.53;63.36;101932.94;4990666;28;9986;-66
2023/10/17 12:24:19;;;;;;;;;0.75;0.50;;;;;11.59;63.32;101932.25;4990667;28;9853;-67
2023/10/17 12:26:47;;;;;;;;;1.00;1.00;;;;;11.55;61.73;101919.28;4990309;28;9771;-66
2023/10/17 12:29:13;;;;;;;;;1.00;1.00;;;;;11.56;61.23;101911.03;4990429;28;9769;-67
2023/10/17 12:31:40;;;;;;;;;1.75;0.00;;;;;11.46;61.82;101921.16;4990384;28;9750;-67
2023/10/17 12:34:10;;;;;;;;;1.75;1.00;;;;;11.54;62.05;101913.03;4990390;28;10050;-66
2023/10/17 12:36:37;;;;;;;;;0.50;0.00;;;;;11.62;62.29;101902.22;4990053;28;9929;-67
2023/10/17 12:39:06;;;;;;;;;1.00;1.00;;;;;11.59;62.46;101899.06;4990206;28;9764;-67
2023/10/17 12:41:33;;;;;;;;;2.00;0.00;;;;;11.66;61.74;101901.88;4972715;28;9681;-66
2023/10/17 12:44:01;;;;;;;;;0.75;0.00;;;;;11.62;61.88;101902.22;4990250;28;9770;-67
2023/10/17 12:46:27;;;;;;;;;0.00;0.00;;;;;11.42;61.76;101900.94;4990143;28;9966;-67
2023/10/17 12:48:54;;;;;;;;;0.00;0.00;;;;;11.57;62.35;101891.13;4990210;28;9884;-68
2023/10/17 12:51:21;;;;;;;;;1.00;1.00;;;;;11.63;61.91;101893.13;4972916;28;9998;-66
2023/10/17 12:53:48;;;;;;;;;0.00;0.00;;;;;11.68;61.11;101886.38;4989975;28;9805;-67
2023/10/17 12:56:15;;;;;;;;;2.00;0.00;;;;;11.68;60.93;101876.41;4989816;28;10300;-66
2023/10/17 12:58:41;;;;;;;;;2.00;0.00;;;;;11.52;61.50;101881.88;4990051;28;9659;-67
2023/10/17 13:01:13;;;;;;;;;1.00;1.00;;;;;11.59;61.24;101877.47;4990217;28;9748;-67
2023/10/17 13:03:40;;;;;;;;;1.75;0.75;;;;;11.66;61.25;101881.13;4990015;28;9925;-67
2023/10/17 13:06:09;;;;;;;;;1.00;1.00;;;;;11.70;60.84;101878.94;4988546;28;10524;-67
2023/10/17 13:08:35;;;;;;;;;0.00;0.00;;;;;11.68;60.82;101864.78;4972744;28;9779;-66
2023/10/17 13:11:03;;;;;;;;;2.00;0.00;;;;;11.69;61.06;101866.47;4989072;28;9818;-67
2023/10/17 13:13:30;;;;;;;;;0.25;0.25;;;;;11.64;61.18;101870.53;4990035;28;9745;-67
2023/10/17 13:15:57;;;;;;;;;2.00;1.00;;;;;11.68;61.92;101865.63;4990193;28;9769;-67
2023/10/17 13:18:25;;;;;;;;;0.25;0.25;;;;;11.82;61.49;101861.31;4972650;28;9699;-66
2023/10/17 13:20:57;;;;;;;;;0.50;0.50;;;;;11.81;62.20;101855.09;4990002;28;9827;-66
2023/10/17 13:23:37;;;;;;;;;1.00;1.00;;;;;11.80;61.68;101853.44;4990164;28;9724;-67
2023/10/17 13:26:08;;;;;;;;;0.00;0.00;;;;;11.92;61.96;101842.28;4989871;28;9832;-67
2023/10/17 13:28:34;;;;;;;;;2.00;2.00;;;;;11.94;61.99;101832.97;4989801;28;9861;-67
2023/10/17 13:31:08;;;;;;;;;0.00;0.00;;;;;11.94;61.86;101832.13;4989735;28;9850;-67
2023/10/17 13:33:35;;;;;;;;;0.75;0.75;;;;;11.92;61.85;101843.09;4989952;28;9924;-67
2023/10/17 13:36:01;;;;;;;;;0.00;0.00;;;;;11.89;59.95;101840.75;4989539;28;9681;-67
2023/10/17 13:38:28;;;;;;;;;0.75;0.75;;;;;11.79;60.60;101832.03;4988547;28;9934;-67
2023/10/17 13:41:05;;;;;;;;;2.00;0.00;;;;;11.83;61.10;101826.13;4972262;28;10450;-67
2023/10/17 13:43:36;;;;;;;;;0.00;0.00;;;;;11.73;61.27;101825.47;4972436;28;9845;-67
2023/10/17 13:46:13;;;;;;;;;0.00;0.00;;;;;11.74;61.25;101827.16;4972221;28;9670;-67
2023/10/17 13:48:48;;;;;;;;;1.00;1.00;;;;;11.69;61.94;101815.22;4989772;28;9736;-67
2023/10/17 13:51:17;;;;;;;;;0.00;0.00;;;;;11.73;62.13;101817.38;4989964;28;9768;-67
2023/10/17 13:53:45;;;;;;;;;1.00;1.00;;;;;11.75;62.67;101818.06;4957277;28;9763;-68